createdAt,value
2019-03-13T00:00:44.521Z,47.19
2019-03-13T00:01:44.515Z,46.57
2019-03-13T00:02:44.534Z,47.49
2019-03-13T00:03:44.527Z,46.98
2019-03-13T00:04:44.478Z,46.98
2019-03-13T00:05:44.482Z,46.57
2019-03-13T00:06:44.536Z,46.86
2019-03-13T00:07:44.458Z,46.77
2019-03-13T00:08:44.441Z,46.06
2019-03-13T00:09:44.449Z,45.85
2019-03-13T00:10:44.410Z,46.24
2019-03-13T00:11:44.399Z,46.67
2019-03-13T00:12:44.402Z,47.29
2019-03-13T00:13:44.390Z,47.06
2019-03-13T00:14:44.378Z,46.65
2019-03-13T00:15:44.351Z,47.06
2019-03-13T00:16:44.340Z,46.55
2019-03-13T00:17:44.341Z,46.77
2019-03-13T00:18:44.318Z,46.75
2019-03-13T00:19:44.311Z,47.06
2019-03-13T00:20:44.308Z,47.99
2019-03-13T00:21:44.296Z,46.86
2019-03-13T00:22:44.393Z,46.96
2019-03-13T00:23:44.276Z,46.34
2019-03-13T00:24:44.265Z,45.10
2019-03-13T00:25:44.248Z,45.62
2019-03-13T00:26:44.229Z,45.83
2019-03-13T00:27:44.308Z,46.03
2019-03-13T00:28:44.233Z,46.44
2019-03-13T00:29:44.196Z,46.34
2019-03-13T00:30:44.286Z,45.93
2019-03-13T00:31:44.185Z,46.44
2019-03-13T00:32:44.160Z,46.44
2019-03-13T00:33:44.167Z,45.01
2019-03-13T00:34:44.191Z,45.60
2019-03-13T00:35:44.154Z,45.42
2019-03-13T00:36:44.128Z,45.21
2019-03-13T00:37:44.115Z,45.40
2019-03-13T00:38:44.104Z,45.31
2019-03-13T00:39:44.082Z,45.31
2019-03-13T00:40:44.071Z,45.09
2019-03-13T00:41:44.064Z,45.70
2019-03-13T00:42:44.263Z,44.88
2019-03-13T00:43:44.040Z,45.40
2019-03-13T00:44:44.032Z,44.06
2019-03-13T00:45:44.046Z,45.09
2019-03-13T00:46:44.002Z,45.19
2019-03-13T00:47:44.016Z,45.09
2019-03-13T00:48:44.000Z,44.37
2019-03-13T00:49:43.977Z,45.29
2019-03-13T00:50:43.978Z,45.40
2019-03-13T00:51:43.945Z,44.37
2019-03-13T00:52:43.948Z,44.98
2019-03-13T00:53:43.933Z,45.19
2019-03-13T00:54:43.935Z,44.57
2019-03-13T00:55:43.910Z,45.09
2019-03-13T00:56:43.974Z,44.37
2019-03-13T00:57:43.955Z,44.98
2019-03-13T00:58:43.881Z,44.88
2019-03-13T00:59:43.864Z,44.98
2019-03-13T01:00:43.855Z,44.26
2019-03-13T01:01:43.849Z,45.09
2019-03-13T01:02:43.829Z,45.09
2019-03-13T01:03:43.818Z,44.88
2019-03-13T01:04:43.802Z,45.40
2019-03-13T01:05:43.808Z,44.88
2019-03-13T01:06:43.815Z,45.40
2019-03-13T01:07:43.782Z,45.09
2019-03-13T01:08:43.795Z,44.47
2019-03-13T01:09:43.767Z,45.19
2019-03-13T01:10:43.894Z,44.57
2019-03-13T01:11:43.762Z,44.37
2019-03-13T01:12:43.712Z,44.37
2019-03-13T01:13:43.696Z,44.17
2019-03-13T01:14:43.696Z,44.17
2019-03-13T01:15:43.676Z,44.37
2019-03-13T01:16:43.818Z,44.26
2019-03-13T01:17:43.686Z,44.47
2019-03-13T01:18:43.698Z,43.75
2019-03-13T01:19:43.631Z,44.37
2019-03-13T01:20:43.628Z,43.96
2019-03-13T01:21:43.648Z,45.09
2019-03-13T01:22:43.619Z,44.26
2019-03-13T01:23:43.583Z,44.37
2019-03-13T01:24:43.673Z,44.47
2019-03-13T01:25:43.583Z,44.06
2019-03-13T01:26:43.560Z,43.22
2019-03-13T01:27:43.553Z,44.37
2019-03-13T01:28:43.719Z,45.29
2019-03-13T01:29:43.523Z,45.07
2019-03-13T01:30:43.908Z,45.48
2019-03-13T01:31:43.517Z,46.09
2019-03-13T01:32:43.501Z,46.42
2019-03-13T01:33:43.490Z,48.38
2019-03-13T01:34:43.464Z,48.99
2019-03-13T01:35:43.457Z,49.30
2019-03-13T01:36:43.450Z,50.84
2019-03-13T01:37:43.433Z,52.59
2019-03-13T01:38:43.425Z,54.66
2019-03-13T01:39:43.431Z,57.23
2019-03-13T01:40:43.394Z,58.78
2019-03-13T01:41:43.403Z,59.01
2019-03-13T01:42:43.406Z,59.63
2019-03-13T01:43:43.360Z,60.55
2019-03-13T01:44:43.367Z,60.78
2019-03-13T01:45:43.339Z,60.75
2019-03-13T01:46:43.338Z,61.81
2019-03-13T01:47:43.314Z,61.40
2019-03-13T01:48:43.302Z,60.99
2019-03-13T01:49:43.301Z,61.02
2019-03-13T01:50:43.338Z,61.53
2019-03-13T01:51:43.285Z,60.99
2019-03-13T01:52:43.265Z,61.33
2019-03-13T01:53:43.248Z,62.25
2019-03-13T01:54:43.285Z,63.07
2019-03-13T01:55:43.298Z,62.77
2019-03-13T01:56:43.241Z,64.44
2019-03-13T01:57:43.205Z,65.26
2019-03-13T01:58:43.218Z,64.96
2019-03-13T01:59:43.183Z,64.86
2019-03-13T02:00:43.173Z,65.37
2019-03-13T02:01:43.182Z,65.89
2019-03-13T02:02:43.152Z,65.78
2019-03-13T02:03:43.151Z,65.26
2019-03-13T02:04:43.122Z,65.47
2019-03-13T02:05:43.120Z,67.94
2019-03-13T02:06:43.112Z,68.08
2019-03-13T02:07:43.105Z,68.77
2019-03-13T02:08:43.092Z,66.94
2019-03-13T02:09:43.089Z,69.07
2019-03-13T02:10:43.062Z,68.80
2019-03-13T02:11:43.064Z,70.65
2019-03-13T02:12:43.036Z,70.65
2019-03-13T02:13:43.055Z,70.76
2019-03-13T02:14:43.058Z,72.13
2019-03-13T02:15:42.994Z,71.20
2019-03-13T02:16:42.997Z,71.27
2019-03-13T02:17:43.032Z,71.41
2019-03-13T02:18:42.982Z,72.54
2019-03-13T02:19:42.955Z,74.08
2019-03-13T02:20:42.971Z,73.05
2019-03-13T02:21:42.977Z,73.36
2019-03-13T02:22:42.914Z,74.29
2019-03-13T02:23:42.916Z,74.50
2019-03-13T02:24:42.896Z,75.12
2019-03-13T02:25:42.899Z,75.01
2019-03-13T02:26:42.869Z,75.53
2019-03-13T02:27:42.870Z,75.53
2019-03-13T02:28:42.855Z,74.80
2019-03-13T02:29:42.852Z,74.71
2019-03-13T02:30:42.841Z,75.43
2019-03-13T02:31:42.846Z,75.77
2019-03-13T02:32:42.899Z,75.26
2019-03-13T02:33:42.799Z,75.63
2019-03-13T02:34:42.802Z,76.04
2019-03-13T02:35:42.802Z,76.08
2019-03-13T02:36:42.770Z,77.01
2019-03-13T02:37:42.747Z,76.80
2019-03-13T02:38:42.733Z,76.90
2019-03-13T02:39:42.725Z,77.01
2019-03-13T02:40:42.750Z,77.52
2019-03-13T02:41:42.830Z,77.31
2019-03-13T02:42:42.707Z,77.31
2019-03-13T02:43:42.711Z,77.73
2019-03-13T02:44:42.676Z,77.62
2019-03-13T02:45:42.668Z,77.42
2019-03-13T02:46:42.639Z,77.42
2019-03-13T02:47:42.668Z,77.73
2019-03-13T02:48:42.633Z,77.94
2019-03-13T02:49:42.611Z,77.73
2019-03-13T02:50:42.609Z,77.83
2019-03-13T02:51:42.600Z,77.62
2019-03-13T02:52:42.621Z,77.73
2019-03-13T02:53:42.612Z,78.14
2019-03-13T02:54:42.553Z,77.94
2019-03-13T02:55:42.548Z,77.62
2019-03-13T02:56:42.543Z,77.52
2019-03-13T02:57:42.546Z,77.52
2019-03-13T02:58:42.507Z,77.22
2019-03-13T02:59:42.526Z,76.49
2019-03-13T03:00:42.504Z,75.94
2019-03-13T03:01:42.480Z,76.87
2019-03-13T03:02:42.464Z,76.76
2019-03-13T03:03:42.501Z,76.76
2019-03-13T03:04:42.441Z,76.25
2019-03-13T03:05:42.428Z,75.84
2019-03-13T03:06:42.419Z,75.84
2019-03-13T03:07:42.415Z,75.94
2019-03-13T03:08:42.416Z,74.80
2019-03-13T03:09:42.382Z,75.22
2019-03-13T03:10:42.400Z,74.71
2019-03-13T03:11:42.380Z,75.01
2019-03-13T03:12:42.353Z,74.50
2019-03-13T03:13:42.345Z,74.50
2019-03-13T03:14:42.322Z,73.36
2019-03-13T03:15:42.319Z,73.57
2019-03-13T03:16:42.329Z,73.47
2019-03-13T03:17:42.286Z,73.57
2019-03-13T03:18:42.289Z,73.05
2019-03-13T03:19:42.280Z,72.61
2019-03-13T03:20:42.261Z,70.96
2019-03-13T03:21:42.255Z,70.65
2019-03-13T03:22:42.259Z,71.48
2019-03-13T03:23:45.231Z,70.55
2019-03-13T03:24:42.220Z,69.93
2019-03-13T03:25:42.210Z,70.04
2019-03-13T03:26:42.203Z,70.45
2019-03-13T03:27:42.188Z,69.01
2019-03-13T03:28:42.163Z,69.86
2019-03-13T03:29:42.160Z,70.04
2019-03-13T03:30:42.158Z,68.93
2019-03-13T03:31:42.157Z,70.07
2019-03-13T03:32:42.130Z,69.86
2019-03-13T03:33:42.135Z,70.37
2019-03-13T03:34:42.105Z,70.79
2019-03-13T03:35:42.091Z,70.17
2019-03-13T03:36:42.098Z,70.48
2019-03-13T03:37:42.058Z,70.89
2019-03-13T03:38:42.059Z,71.20
2019-03-13T03:39:42.047Z,71.00
2019-03-13T03:40:42.033Z,71.55
2019-03-13T03:41:42.034Z,71.23
2019-03-13T03:42:42.041Z,72.06
2019-03-13T03:43:41.992Z,71.23
2019-03-13T03:44:42.005Z,72.47
2019-03-13T03:45:42.016Z,72.67
2019-03-13T03:46:41.965Z,72.47
2019-03-13T03:47:41.964Z,72.88
2019-03-13T03:48:41.939Z,72.06
2019-03-13T03:49:41.932Z,72.16
2019-03-13T03:50:41.941Z,73.02
2019-03-13T03:51:41.997Z,72.99
2019-03-13T03:52:41.951Z,73.09
2019-03-13T03:53:41.872Z,73.09
2019-03-13T03:54:41.865Z,72.78
2019-03-13T03:55:41.870Z,72.61
2019-03-13T03:56:41.890Z,72.88
2019-03-13T03:57:41.828Z,73.02
2019-03-13T03:58:41.824Z,72.92
2019-03-13T03:59:41.840Z,72.16
2019-03-13T04:00:41.813Z,72.16
2019-03-13T04:01:41.881Z,72.30
2019-03-13T04:02:41.772Z,72.81
2019-03-13T04:03:41.777Z,71.26
2019-03-13T04:04:41.752Z,71.44
2019-03-13T04:05:41.892Z,70.86
2019-03-13T04:06:41.737Z,71.58
2019-03-13T04:07:41.720Z,71.16
2019-03-13T04:08:41.709Z,71.47
2019-03-13T04:09:41.723Z,71.37
2019-03-13T04:10:41.738Z,71.16
2019-03-13T04:11:41.671Z,71.06
2019-03-13T04:12:41.680Z,70.96
2019-03-13T04:13:44.855Z,70.65
2019-03-13T04:14:41.635Z,70.23
2019-03-13T04:15:41.619Z,70.03
2019-03-13T04:16:41.623Z,70.75
2019-03-13T04:17:41.631Z,69.51
2019-03-13T04:18:41.593Z,69.51
2019-03-13T04:19:41.574Z,67.45
2019-03-13T04:20:41.585Z,67.03
2019-03-13T04:21:41.575Z,66.94
2019-03-13T04:22:41.551Z,66.11
2019-03-13T04:23:41.571Z,66.52
2019-03-13T04:24:41.537Z,66.63
2019-03-13T04:25:41.513Z,67.03
2019-03-13T04:26:41.519Z,66.42
2019-03-13T04:27:41.495Z,66.11
2019-03-13T04:28:41.491Z,67.03
2019-03-13T04:29:41.459Z,67.27
2019-03-13T04:30:41.466Z,67.07
2019-03-13T04:31:41.450Z,67.66
2019-03-13T04:32:41.427Z,67.07
2019-03-13T04:33:41.413Z,67.38
2019-03-13T04:34:41.419Z,67.79
2019-03-13T04:35:41.420Z,68.10
2019-03-13T04:36:41.381Z,67.69
2019-03-13T04:37:41.412Z,68.00
2019-03-13T04:38:41.370Z,67.79
2019-03-13T04:39:41.350Z,68.10
2019-03-13T04:40:41.357Z,68.21
2019-03-13T04:41:41.336Z,68.72
2019-03-13T04:42:41.324Z,68.82
2019-03-13T04:43:41.325Z,67.79
2019-03-13T04:44:41.306Z,68.00
2019-03-13T04:45:41.289Z,68.62
2019-03-13T04:46:41.266Z,67.58
2019-03-13T04:47:41.287Z,67.69
2019-03-13T04:48:41.282Z,67.38
2019-03-13T04:49:41.236Z,66.55
2019-03-13T04:50:41.271Z,66.24
2019-03-13T04:51:41.228Z,66.76
2019-03-13T04:52:41.206Z,67.07
2019-03-13T04:53:41.190Z,67.07
2019-03-13T04:54:41.207Z,65.83
2019-03-13T04:55:41.188Z,65.94
2019-03-13T04:56:41.161Z,65.73
2019-03-13T04:57:41.146Z,65.11
2019-03-13T04:58:41.144Z,65.21
2019-03-13T04:59:41.131Z,65.21
2019-03-13T05:00:41.158Z,64.90
2019-03-13T05:01:41.102Z,64.90
2019-03-13T05:02:41.095Z,64.07
2019-03-13T05:03:41.077Z,63.25
2019-03-13T05:04:41.105Z,64.07
2019-03-13T05:05:41.090Z,63.56
2019-03-13T05:06:41.046Z,64.39
2019-03-13T05:07:41.031Z,64.07
2019-03-13T05:08:45.282Z,63.07
2019-03-13T05:09:41.017Z,63.59
2019-03-13T05:10:41.007Z,63.46
2019-03-13T05:11:41.009Z,62.97
2019-03-13T05:12:40.998Z,63.39
2019-03-13T05:13:40.971Z,62.76
2019-03-13T05:14:40.983Z,63.28
2019-03-13T05:15:41.080Z,63.39
2019-03-13T05:16:40.929Z,62.97
2019-03-13T05:17:40.958Z,63.39
2019-03-13T05:18:40.906Z,63.28
2019-03-13T05:19:40.906Z,63.00
2019-03-13T05:20:40.882Z,63.28
2019-03-13T05:21:40.887Z,64.14
2019-03-13T05:22:40.872Z,63.69
2019-03-13T05:23:40.880Z,64.45
2019-03-13T05:24:40.857Z,64.86
2019-03-13T05:25:40.852Z,65.06
2019-03-13T05:26:40.849Z,64.24
2019-03-13T05:27:40.824Z,64.45
2019-03-13T05:28:40.793Z,64.24
2019-03-13T05:29:40.795Z,64.55
2019-03-13T05:30:40.808Z,64.65
2019-03-13T05:31:40.767Z,64.31
2019-03-13T05:32:40.944Z,64.45
2019-03-13T05:33:40.771Z,64.52
2019-03-13T05:34:40.726Z,64.24
2019-03-13T05:35:41.236Z,64.34
2019-03-13T05:36:40.785Z,64.21
2019-03-13T05:37:40.698Z,64.86
2019-03-13T05:38:40.687Z,64.21
2019-03-13T05:39:40.708Z,63.62
2019-03-13T05:40:40.746Z,64.45
2019-03-13T05:41:40.651Z,64.34
2019-03-13T05:42:40.674Z,64.86
2019-03-13T05:43:40.643Z,64.96
2019-03-13T05:44:40.619Z,64.45
2019-03-13T05:45:40.626Z,64.65
2019-03-13T05:46:40.604Z,64.45
2019-03-13T05:47:40.627Z,64.55
2019-03-13T05:48:40.574Z,64.65
2019-03-13T05:49:40.575Z,64.86
2019-03-13T05:50:40.587Z,64.45
2019-03-13T05:51:40.542Z,64.45
2019-03-13T05:52:40.531Z,64.45
2019-03-13T05:53:40.531Z,64.78
2019-03-13T05:54:40.507Z,64.55
2019-03-13T05:55:40.514Z,64.34
2019-03-13T05:56:40.935Z,65.17
2019-03-13T05:57:40.473Z,64.99
2019-03-13T05:58:40.484Z,65.09
2019-03-13T05:59:40.467Z,64.99
2019-03-13T06:00:40.741Z,64.58
2019-03-13T06:01:40.437Z,64.76
2019-03-13T06:02:40.453Z,65.09
2019-03-13T06:03:40.461Z,65.20
2019-03-13T06:04:40.404Z,64.58
2019-03-13T06:05:40.403Z,64.96
2019-03-13T06:06:41.234Z,64.76
2019-03-13T06:07:40.383Z,64.86
2019-03-13T06:08:40.349Z,64.96
2019-03-13T06:09:40.344Z,64.86
2019-03-13T06:10:40.340Z,64.86
2019-03-13T06:11:40.322Z,65.27
2019-03-13T06:12:40.326Z,64.24
2019-03-13T06:13:40.331Z,64.86
2019-03-13T06:14:40.280Z,64.86
2019-03-13T06:15:40.286Z,63.82
2019-03-13T06:16:40.276Z,63.69
2019-03-13T06:17:48.835Z,63.72
2019-03-13T06:18:40.240Z,63.62
2019-03-13T06:19:40.268Z,64.24
2019-03-13T06:20:40.254Z,64.55
2019-03-13T06:21:40.207Z,64.62
2019-03-13T06:22:40.216Z,64.11
2019-03-13T06:23:40.186Z,64.11
2019-03-13T06:24:40.174Z,65.14
2019-03-13T06:25:40.186Z,63.59
2019-03-13T06:26:40.148Z,63.90
2019-03-13T06:27:40.182Z,63.69
2019-03-13T06:28:40.131Z,63.69
2019-03-13T06:29:40.127Z,63.97
2019-03-13T06:30:40.134Z,63.79
2019-03-13T06:31:40.096Z,62.87
2019-03-13T06:32:40.084Z,63.07
2019-03-13T06:33:40.104Z,63.46
2019-03-13T06:34:40.094Z,63.25
2019-03-13T06:35:40.056Z,63.15
2019-03-13T06:36:40.052Z,63.15
2019-03-13T06:37:40.045Z,63.04
2019-03-13T06:38:40.023Z,63.56
2019-03-13T06:39:40.004Z,62.94
2019-03-13T06:40:40.009Z,62.84
2019-03-13T06:41:40.063Z,63.25
2019-03-13T06:42:40.178Z,63.35
2019-03-13T06:43:39.956Z,63.15
2019-03-13T06:44:39.985Z,62.43
2019-03-13T06:45:39.987Z,62.43
2019-03-13T06:46:39.928Z,62.12
2019-03-13T06:47:39.929Z,62.63
2019-03-13T06:48:39.955Z,61.80
2019-03-13T06:49:39.905Z,62.84
2019-03-13T06:50:39.886Z,62.84
2019-03-13T06:51:39.881Z,62.19
2019-03-13T06:52:39.862Z,62.40
2019-03-13T06:53:39.841Z,62.19
2019-03-13T06:54:39.835Z,62.40
2019-03-13T06:55:39.979Z,61.16
2019-03-13T06:56:39.810Z,61.68
2019-03-13T06:57:39.802Z,61.57
2019-03-13T06:58:39.799Z,62.08
2019-03-13T06:59:39.771Z,62.40
2019-03-13T07:00:39.779Z,61.36
2019-03-13T07:01:39.762Z,61.78
2019-03-13T07:02:39.749Z,61.78
2019-03-13T07:03:39.745Z,61.68
2019-03-13T07:04:39.735Z,61.70
2019-03-13T07:05:39.794Z,62.53
2019-03-13T07:06:39.691Z,61.29
2019-03-13T07:07:39.682Z,62.40
2019-03-13T07:08:39.668Z,61.47
2019-03-13T07:09:39.863Z,61.26
2019-03-13T07:10:39.678Z,61.05
2019-03-13T07:11:39.633Z,61.05
2019-03-13T07:12:39.629Z,61.26
2019-03-13T07:13:39.619Z,61.78
2019-03-13T07:14:39.605Z,61.88
2019-03-13T07:15:39.809Z,60.85
2019-03-13T07:16:39.587Z,61.47
2019-03-13T07:17:39.569Z,61.36
2019-03-13T07:18:39.569Z,61.36
2019-03-13T07:19:39.556Z,61.47
2019-03-13T07:20:39.583Z,61.24
2019-03-13T07:21:39.549Z,61.13
2019-03-13T07:22:39.509Z,60.93
2019-03-13T07:23:39.514Z,61.03
2019-03-13T07:24:39.487Z,61.21
2019-03-13T07:25:48.275Z,60.89
2019-03-13T07:26:39.510Z,59.66
2019-03-13T07:27:39.448Z,59.79
2019-03-13T07:28:39.440Z,59.56
2019-03-13T07:29:39.441Z,59.48
2019-03-13T07:30:39.426Z,59.86
2019-03-13T07:31:39.422Z,59.35
2019-03-13T07:32:39.410Z,59.35
2019-03-13T07:33:39.391Z,59.66
2019-03-13T07:34:39.376Z,59.35
2019-03-13T07:35:39.384Z,59.66
2019-03-13T07:36:39.382Z,59.45
2019-03-13T07:37:39.346Z,60.07
2019-03-13T07:38:39.349Z,59.66
2019-03-13T07:39:39.331Z,59.45
2019-03-13T07:40:39.310Z,59.33
2019-03-13T07:41:39.324Z,59.56
2019-03-13T07:42:39.326Z,59.25
2019-03-13T07:43:39.313Z,59.42
2019-03-13T07:44:39.304Z,59.22
2019-03-13T07:45:39.298Z,58.91
2019-03-13T07:46:39.253Z,58.89
2019-03-13T07:47:39.231Z,59.40
2019-03-13T07:48:39.230Z,59.22
2019-03-13T07:49:39.222Z,58.98
2019-03-13T07:50:39.211Z,57.34
2019-03-13T07:51:39.199Z,57.54
2019-03-13T07:52:39.169Z,57.34
2019-03-13T07:53:39.163Z,57.86
2019-03-13T07:54:39.179Z,58.68
2019-03-13T07:55:39.192Z,56.72
2019-03-13T07:56:39.144Z,56.82
2019-03-13T07:57:39.126Z,57.75
2019-03-13T07:58:39.279Z,58.37
2019-03-13T07:59:39.097Z,56.82
2019-03-13T08:00:39.078Z,57.54
2019-03-13T08:01:39.113Z,57.14
2019-03-13T08:02:39.056Z,57.54
2019-03-13T08:03:39.071Z,57.42
2019-03-13T08:04:39.041Z,58.47
2019-03-13T08:05:39.080Z,59.06
2019-03-13T08:06:39.021Z,57.34
2019-03-13T08:07:39.009Z,56.93
2019-03-13T08:08:38.996Z,57.31
2019-03-13T08:09:38.976Z,57.75
2019-03-13T08:10:38.974Z,56.82
2019-03-13T08:11:38.984Z,56.00
2019-03-13T08:12:38.961Z,56.41
2019-03-13T08:13:38.937Z,56.21
2019-03-13T08:14:38.937Z,56.41
2019-03-13T08:15:38.938Z,57.24
2019-03-13T08:16:38.942Z,56.52
2019-03-13T08:17:38.901Z,57.42
2019-03-13T08:18:38.899Z,56.38
2019-03-13T08:19:38.885Z,55.77
2019-03-13T08:20:38.856Z,55.57
2019-03-13T08:21:38.872Z,55.98
2019-03-13T08:22:38.838Z,55.26
2019-03-13T08:23:38.823Z,55.98
2019-03-13T08:24:38.814Z,55.13
2019-03-13T08:25:38.811Z,54.82
2019-03-13T08:26:38.816Z,55.74
2019-03-13T08:27:38.783Z,54.61
2019-03-13T08:28:38.773Z,54.72
2019-03-13T08:29:38.751Z,54.72
2019-03-13T08:30:38.744Z,55.41
2019-03-13T08:31:38.768Z,53.87
2019-03-13T08:32:38.717Z,54.17
2019-03-13T08:33:38.727Z,53.97
2019-03-13T08:34:38.736Z,54.49
2019-03-13T08:35:38.719Z,53.77
2019-03-13T08:36:40.675Z,53.45
2019-03-13T08:37:41.790Z,53.66
2019-03-13T08:38:38.653Z,53.05
2019-03-13T08:39:38.662Z,52.94
2019-03-13T08:40:38.626Z,53.15
2019-03-13T08:41:38.659Z,53.12
2019-03-13T08:42:38.631Z,52.81
2019-03-13T08:43:38.626Z,52.71
2019-03-13T08:44:38.592Z,53.43
2019-03-13T08:45:38.593Z,52.92
2019-03-13T08:46:38.562Z,53.00
2019-03-13T08:47:38.566Z,53.12
2019-03-13T08:48:38.543Z,52.48
2019-03-13T08:49:38.527Z,52.09
2019-03-13T08:50:38.533Z,51.68
2019-03-13T08:51:38.529Z,52.40
2019-03-13T08:52:38.502Z,52.79
2019-03-13T08:53:38.494Z,52.28
2019-03-13T08:54:38.495Z,51.76
2019-03-13T08:55:38.463Z,51.12
2019-03-13T08:56:38.628Z,51.02
2019-03-13T08:57:38.451Z,51.23
2019-03-13T08:58:38.426Z,51.95
2019-03-13T08:59:38.432Z,51.23
2019-03-13T09:00:38.442Z,51.43
2019-03-13T09:01:38.398Z,51.33
2019-03-13T09:02:38.413Z,51.33
2019-03-13T09:03:38.369Z,51.04
2019-03-13T09:04:41.765Z,50.51
2019-03-13T09:05:38.343Z,51.53
2019-03-13T09:06:38.334Z,51.43
2019-03-13T09:07:38.342Z,50.92
2019-03-13T09:08:38.370Z,51.02
2019-03-13T09:09:38.318Z,50.92
2019-03-13T09:10:38.313Z,50.71
2019-03-13T09:11:38.307Z,51.33
2019-03-13T09:12:38.319Z,50.92
2019-03-13T09:13:38.257Z,51.12
2019-03-13T09:14:38.317Z,51.41
2019-03-13T09:15:38.232Z,51.20
2019-03-13T09:16:38.230Z,51.33
2019-03-13T09:17:38.220Z,51.10
2019-03-13T09:18:38.202Z,51.10
2019-03-13T09:19:38.190Z,51.61
2019-03-13T09:20:38.211Z,51.61
2019-03-13T09:21:38.173Z,52.02
2019-03-13T09:22:38.179Z,51.43
2019-03-13T09:23:38.629Z,51.41
2019-03-13T09:24:38.162Z,51.41
2019-03-13T09:25:38.120Z,51.41
2019-03-13T09:26:38.109Z,50.92
2019-03-13T09:27:38.306Z,50.79
2019-03-13T09:28:38.120Z,51.12
2019-03-13T09:29:38.128Z,51.33
2019-03-13T09:30:38.062Z,51.41
2019-03-13T09:31:38.144Z,51.31
2019-03-13T09:32:38.054Z,50.79
2019-03-13T09:33:38.106Z,50.99
2019-03-13T09:34:38.019Z,51.31
2019-03-13T09:35:38.028Z,51.02
2019-03-13T09:36:38.001Z,50.30
2019-03-13T09:37:38.002Z,50.99
2019-03-13T09:38:38.458Z,50.38
2019-03-13T09:39:38.317Z,50.99
2019-03-13T09:40:37.955Z,50.90
2019-03-13T09:41:38.006Z,50.69
2019-03-13T09:42:37.926Z,50.38
2019-03-13T09:43:37.938Z,50.79
2019-03-13T09:44:38.365Z,50.99
2019-03-13T09:45:37.925Z,50.38
2019-03-13T09:46:37.901Z,51.02
2019-03-13T09:47:37.895Z,50.38
2019-03-13T09:48:37.880Z,50.28
2019-03-13T09:49:37.874Z,51.31
2019-03-13T09:50:37.851Z,51.31
2019-03-13T09:51:37.824Z,50.90
2019-03-13T09:52:37.830Z,50.48
2019-03-13T09:53:37.804Z,50.99
2019-03-13T09:54:38.291Z,50.28
2019-03-13T09:55:37.790Z,50.40
2019-03-13T09:56:37.796Z,50.82
2019-03-13T09:57:37.763Z,51.12
2019-03-13T09:58:37.747Z,50.30
2019-03-13T09:59:43.386Z,51.33
2019-03-13T10:00:38.738Z,50.38
2019-03-13T10:01:37.731Z,51.23
2019-03-13T10:02:37.751Z,50.99
2019-03-13T10:03:37.701Z,50.38
2019-03-13T10:04:37.780Z,50.15
2019-03-13T10:05:37.688Z,50.36
2019-03-13T10:06:37.682Z,50.07
2019-03-13T10:07:37.670Z,50.15
2019-03-13T10:08:37.639Z,49.23
2019-03-13T10:09:37.646Z,49.43
2019-03-13T10:10:37.646Z,49.43
2019-03-13T10:11:37.607Z,48.61
2019-03-13T10:12:37.611Z,49.46
2019-03-13T10:13:37.619Z,49.26
2019-03-13T10:14:37.923Z,49.23
2019-03-13T10:15:37.556Z,48.84
2019-03-13T10:16:37.546Z,48.21
2019-03-13T10:17:37.549Z,48.41
2019-03-13T10:18:37.556Z,49.74
2019-03-13T10:19:37.512Z,50.05
2019-03-13T10:20:37.521Z,49.74
2019-03-13T10:21:37.488Z,48.49
2019-03-13T10:22:37.486Z,48.39
2019-03-13T10:23:37.490Z,48.59
2019-03-13T10:24:37.477Z,48.80
2019-03-13T10:25:37.495Z,47.88
2019-03-13T10:26:37.454Z,47.85
2019-03-13T10:27:37.426Z,48.98
2019-03-13T10:28:37.418Z,47.85
2019-03-13T10:29:37.408Z,48.36
2019-03-13T10:30:37.412Z,48.06
2019-03-13T10:31:37.438Z,47.96
2019-03-13T10:32:37.373Z,48.16
2019-03-13T10:33:37.365Z,47.01
2019-03-13T10:34:37.346Z,47.52
2019-03-13T10:35:37.359Z,46.50
2019-03-13T10:36:37.321Z,46.60
2019-03-13T10:37:37.327Z,46.30
2019-03-13T10:38:37.296Z,45.78
2019-03-13T10:39:37.303Z,46.70
2019-03-13T10:40:37.298Z,46.60
2019-03-13T10:41:37.276Z,46.39
2019-03-13T10:42:37.254Z,47.19
2019-03-13T10:43:37.264Z,46.37
2019-03-13T10:44:37.232Z,46.19
2019-03-13T10:45:37.236Z,46.19
2019-03-13T10:46:37.211Z,46.17
2019-03-13T10:47:37.234Z,45.97
2019-03-13T10:48:37.208Z,45.76
2019-03-13T10:49:37.204Z,45.45
2019-03-13T10:50:37.165Z,45.25
2019-03-13T10:51:37.168Z,45.25
2019-03-13T10:52:37.148Z,45.84
2019-03-13T10:53:37.137Z,45.45
2019-03-13T10:54:37.125Z,45.35
2019-03-13T10:55:37.117Z,46.39
2019-03-13T10:56:37.098Z,46.19
2019-03-13T10:57:37.085Z,45.98
2019-03-13T10:58:37.095Z,46.17
2019-03-13T10:59:37.126Z,46.17
2019-03-13T11:00:37.049Z,46.17
2019-03-13T11:01:37.039Z,46.17
2019-03-13T11:02:37.114Z,45.86
2019-03-13T11:03:37.021Z,46.68
2019-03-13T11:04:37.007Z,46.78
2019-03-13T11:05:37.029Z,45.65
2019-03-13T11:06:36.982Z,45.25
2019-03-13T11:07:36.974Z,45.97
2019-03-13T11:08:36.964Z,46.27
2019-03-13T11:09:36.968Z,46.27
2019-03-13T11:10:37.014Z,46.37
2019-03-13T11:11:36.945Z,45.45
2019-03-13T11:12:36.998Z,44.94
2019-03-13T11:13:36.906Z,45.25
2019-03-13T11:14:36.905Z,45.15
2019-03-13T11:15:36.893Z,45.33
2019-03-13T11:16:36.876Z,44.43
2019-03-13T11:17:36.871Z,44.12
2019-03-13T11:18:36.865Z,45.35
2019-03-13T11:19:36.876Z,45.35
2019-03-13T11:20:36.922Z,45.45
2019-03-13T11:21:36.816Z,44.94
2019-03-13T11:22:36.826Z,44.82
2019-03-13T11:23:36.797Z,44.92
2019-03-13T11:24:36.784Z,44.00
2019-03-13T11:25:36.796Z,45.25
2019-03-13T11:26:36.780Z,44.92
2019-03-13T11:27:36.761Z,44.20
2019-03-13T11:28:36.762Z,43.90
2019-03-13T11:29:36.732Z,44.10
2019-03-13T11:30:36.843Z,44.82
2019-03-13T11:31:36.709Z,44.51
2019-03-13T11:32:36.707Z,44.10
2019-03-13T11:33:36.708Z,43.16
2019-03-13T11:34:36.670Z,44.10
2019-03-13T11:35:36.671Z,43.90
2019-03-13T11:36:36.662Z,44.00
2019-03-13T11:37:36.639Z,44.08
2019-03-13T11:38:36.625Z,43.69
2019-03-13T11:39:36.625Z,42.75
2019-03-13T11:40:36.633Z,42.85
2019-03-13T11:41:36.609Z,43.26
2019-03-13T11:42:36.581Z,43.47
2019-03-13T11:43:36.589Z,43.16
2019-03-13T11:44:36.562Z,42.85
2019-03-13T11:45:36.655Z,43.16
2019-03-13T11:46:36.537Z,44.29
2019-03-13T11:47:42.397Z,42.85
2019-03-13T11:48:37.511Z,43.47
2019-03-13T11:49:36.519Z,43.16
2019-03-13T11:50:36.547Z,43.16
2019-03-13T11:51:36.476Z,42.75
2019-03-13T11:52:36.473Z,43.06
2019-03-13T11:53:36.542Z,43.47
2019-03-13T11:54:36.569Z,43.98
2019-03-13T11:55:36.486Z,44.38
2019-03-13T11:56:36.475Z,44.90
2019-03-13T11:57:36.407Z,44.08
2019-03-13T11:58:36.397Z,44.71
2019-03-13T11:59:36.405Z,44.20
2019-03-13T12:00:36.399Z,45.02
2019-03-13T12:01:45.253Z,45.02
2019-03-13T12:02:37.349Z,44.92
2019-03-13T12:03:36.340Z,45.12
2019-03-13T12:04:36.349Z,45.23
2019-03-13T12:05:36.322Z,45.23
2019-03-13T12:06:36.336Z,45.23
2019-03-13T12:07:36.320Z,45.84
2019-03-13T12:08:36.284Z,45.43
2019-03-13T12:09:36.288Z,45.74
2019-03-13T12:10:36.265Z,45.65
2019-03-13T12:11:36.263Z,46.25
2019-03-13T12:12:36.245Z,45.25
2019-03-13T12:13:36.252Z,45.35
2019-03-13T12:14:36.229Z,45.45
2019-03-13T12:15:36.217Z,46.07
2019-03-13T12:16:36.228Z,46.39
2019-03-13T12:17:36.192Z,45.86
2019-03-13T12:18:36.192Z,45.78
2019-03-13T12:19:36.191Z,45.06
2019-03-13T12:20:36.153Z,45.98
2019-03-13T12:21:43.702Z,46.19
2019-03-13T12:22:36.134Z,46.39
2019-03-13T12:23:36.142Z,46.30
2019-03-13T12:24:36.111Z,46.09
2019-03-13T12:25:36.119Z,46.19
2019-03-13T12:26:36.093Z,46.19
2019-03-13T12:27:36.077Z,46.11
2019-03-13T12:28:36.177Z,46.19
2019-03-13T12:29:36.065Z,46.19
2019-03-13T12:30:36.057Z,46.60
2019-03-13T12:31:36.031Z,46.09
2019-03-13T12:32:36.036Z,47.11
2019-03-13T12:33:36.022Z,46.81
2019-03-13T12:34:36.012Z,46.39
2019-03-13T12:35:36.018Z,45.68
2019-03-13T12:36:35.970Z,46.81
2019-03-13T12:37:35.957Z,46.19
2019-03-13T12:38:35.998Z,47.09
2019-03-13T12:39:35.977Z,46.89
2019-03-13T12:40:35.952Z,46.99
2019-03-13T12:41:36.019Z,46.99
2019-03-13T12:42:35.943Z,46.99
2019-03-13T12:43:35.976Z,47.91
2019-03-13T12:44:35.923Z,46.89
2019-03-13T12:45:35.879Z,46.58
2019-03-13T12:46:35.886Z,46.17
2019-03-13T12:47:35.874Z,47.09
2019-03-13T12:48:35.871Z,48.03
2019-03-13T12:49:35.824Z,48.11
2019-03-13T12:50:35.827Z,48.22
2019-03-13T12:51:35.821Z,48.03
2019-03-13T12:52:35.802Z,46.58